sensor_id;sensor_type;location;lat;lon;timestamp;P1;durP1;ratioP1;P2;durP2;ratioP2
5650;SDS011;40241;52.684;9.758;2023-08-17T00:00:08;2.63;;;1.40;;
5650;SDS011;40241;52.684;9.758;2023-08-17T00:02:35;4.40;;;1.13;;
5650;SDS011;40241;52.684;9.758;2023-08-17T00:05:00;2.40;;;1.30;;
5650;SDS011;40241;52.684;9.758;2023-08-17T00:07:25;1.10;;;1.00;;
5650;SDS011;40241;52.684;9.758;2023-08-17T00:09:51;1.00;;;0.90;;
5650;SDS011;40241;52.684;9.758;2023-08-17T00:12:16;1.50;;;1.10;;
5650;SDS011;40241;52.684;9.758;2023-08-17T00:14:41;1.90;;;1.53;;
5650;SDS011;40241;52.684;9.758;2023-08-17T00:17:07;1.30;;;1.20;;
5650;SDS011;40241;52.684;9.758;2023-08-17T00:19:32;2.20;;;1.43;;
5650;SDS011;40241;52.684;9.758;2023-08-17T00:21:57;2.57;;;1.10;;
5650;SDS011;40241;52.684;9.758;2023-08-17T00:24:23;4.27;;;1.20;;
5650;SDS011;40241;52.684;9.758;2023-08-17T00:26:48;3.50;;;1.33;;
5650;SDS011;40241;52.684;9.758;2023-08-17T00:29:13;1.30;;;1.10;;
5650;SDS011;40241;52.684;9.758;2023-08-17T00:31:40;1.80;;;1.30;;
5650;SDS011;40241;52.684;9.758;2023-08-17T00:34:05;3.60;;;1.13;;
5650;SDS011;40241;52.684;9.758;2023-08-17T00:36:31;2.13;;;1.43;;
5650;SDS011;40241;52.684;9.758;2023-08-17T00:38:56;3.33;;;1.73;;
5650;SDS011;40241;52.684;9.758;2023-08-17T00:41:21;1.63;;;1.00;;
5650;SDS011;40241;52.684;9.758;2023-08-17T00:43:47;1.90;;;1.33;;
5650;SDS011;40241;52.684;9.758;2023-08-17T00:46:12;1.57;;;1.03;;
5650;SDS011;40241;52.684;9.758;2023-08-17T00:48:37;3.03;;;1.23;;
5650;SDS011;40241;52.684;9.758;2023-08-17T00:51:03;2.90;;;1.40;;
5650;SDS011;40241;52.684;9.758;2023-08-17T00:53:29;2.00;;;1.30;;
5650;SDS011;40241;52.684;9.758;2023-08-17T00:55:56;6.10;;;1.43;;
5650;SDS011;40241;52.684;9.758;2023-08-17T00:58:22;4.63;;;1.33;;
5650;SDS011;40241;52.684;9.758;2023-08-17T01:00:48;4.97;;;1.40;;
5650;SDS011;40241;52.684;9.758;2023-08-17T01:03:14;3.03;;;1.27;;
5650;SDS011;40241;52.684;9.758;2023-08-17T01:05:40;3.07;;;1.23;;
5650;SDS011;40241;52.684;9.758;2023-08-17T01:08:05;2.60;;;1.27;;
5650;SDS011;40241;52.684;9.758;2023-08-17T01:10:31;3.33;;;1.47;;
5650;SDS011;40241;52.684;9.758;2023-08-17T01:13:21;3.30;;;1.40;;
5650;SDS011;40241;52.684;9.758;2023-08-17T01:15:58;3.53;;;1.20;;
5650;SDS011;40241;52.684;9.758;2023-08-17T01:18:34;3.80;;;1.40;;
5650;SDS011;40241;52.684;9.758;2023-08-17T01:21:02;2.83;;;1.50;;
5650;SDS011;40241;52.684;9.758;2023-08-17T01:23:31;3.53;;;1.47;;
5650;SDS011;40241;52.684;9.758;2023-08-17T01:25:57;3.23;;;1.17;;
5650;SDS011;40241;52.684;9.758;2023-08-17T01:28:22;4.67;;;1.60;;
5650;SDS011;40241;52.684;9.758;2023-08-17T01:33:52;1.83;;;1.20;;
5650;SDS011;40241;52.684;9.758;2023-08-17T01:36:35;1.50;;;1.00;;
5650;SDS011;40241;52.684;9.758;2023-08-17T01:39:04;3.53;;;1.17;;
5650;SDS011;40241;52.684;9.758;2023-08-17T01:41:32;3.67;;;1.20;;
5650;SDS011;40241;52.684;9.758;2023-08-17T01:43:58;2.90;;;1.37;;
5650;SDS011;40241;52.684;9.758;2023-08-17T01:46:27;2.77;;;1.50;;
5650;SDS011;40241;52.684;9.758;2023-08-17T01:48:55;2.13;;;1.20;;
5650;SDS011;40241;52.684;9.758;2023-08-17T01:51:21;2.80;;;1.33;;
5650;SDS011;40241;52.684;9.758;2023-08-17T01:53:46;1.90;;;1.27;;
5650;SDS011;40241;52.684;9.758;2023-08-17T01:56:12;1.43;;;1.10;;
5650;SDS011;40241;52.684;9.758;2023-08-17T01:58:37;1.83;;;1.07;;
5650;SDS011;40241;52.684;9.758;2023-08-17T02:01:02;1.93;;;1.20;;
5650;SDS011;40241;52.684;9.758;2023-08-17T02:03:28;2.33;;;1.30;;
5650;SDS011;40241;52.684;9.758;2023-08-17T02:05:57;2.80;;;1.40;;
5650;SDS011;40241;52.684;9.758;2023-08-17T02:08:23;2.60;;;1.50;;
5650;SDS011;40241;52.684;9.758;2023-08-17T02:10:48;1.20;;;1.10;;
5650;SDS011;40241;52.684;9.758;2023-08-17T02:13:14;1.47;;;1.37;;
5650;SDS011;40241;52.684;9.758;2023-08-17T02:15:40;1.30;;;1.20;;
5650;SDS011;40241;52.684;9.758;2023-08-17T02:18:05;3.17;;;1.77;;
5650;SDS011;40241;52.684;9.758;2023-08-17T02:20:31;1.97;;;1.33;;
5650;SDS011;40241;52.684;9.758;2023-08-17T02:22:56;1.80;;;1.23;;
5650;SDS011;40241;52.684;9.758;2023-08-17T02:25:22;1.90;;;1.57;;
5650;SDS011;40241;52.684;9.758;2023-08-17T02:27:47;3.07;;;1.53;;
5650;SDS011;40241;52.684;9.758;2023-08-17T02:30:12;3.87;;;1.70;;
5650;SDS011;40241;52.684;9.758;2023-08-17T02:32:38;4.97;;;1.80;;
5650;SDS011;40241;52.684;9.758;2023-08-17T02:35:04;6.10;;;1.47;;
5650;SDS011;40241;52.684;9.758;2023-08-17T02:37:29;1.87;;;1.67;;
5650;SDS011;40241;52.684;9.758;2023-08-17T02:39:55;1.70;;;1.20;;
5650;SDS011;40241;52.684;9.758;2023-08-17T02:42:20;1.63;;;1.47;;
5650;SDS011;40241;52.684;9.758;2023-08-17T02:44:45;2.37;;;1.60;;
5650;SDS011;40241;52.684;9.758;2023-08-17T02:47:11;2.20;;;1.50;;
5650;SDS011;40241;52.684;9.758;2023-08-17T02:49:36;2.40;;;1.73;;
5650;SDS011;40241;52.684;9.758;2023-08-17T02:52:02;1.40;;;1.30;;
5650;SDS011;40241;52.684;9.758;2023-08-17T02:54:27;2.10;;;1.53;;
5650;SDS011;40241;52.684;9.758;2023-08-17T02:56:52;2.33;;;1.57;;
5650;SDS011;40241;52.684;9.758;2023-08-17T02:59:18;4.00;;;1.33;;
5650;SDS011;40241;52.684;9.758;2023-08-17T03:01:44;8.53;;;1.60;;
5650;SDS011;40241;52.684;9.758;2023-08-17T03:04:10;3.00;;;1.63;;
5650;SDS011;40241;52.684;9.758;2023-08-17T03:06:35;2.63;;;1.50;;
5650;SDS011;40241;52.684;9.758;2023-08-17T03:09:01;3.17;;;1.93;;
5650;SDS011;40241;52.684;9.758;2023-08-17T03:11:27;2.57;;;1.17;;
5650;SDS011;40241;52.684;9.758;2023-08-17T03:13:52;6.80;;;1.67;;
5650;SDS011;40241;52.684;9.758;2023-08-17T03:16:20;1.60;;;1.47;;
5650;SDS011;40241;52.684;9.758;2023-08-17T03:18:46;2.30;;;1.27;;
5650;SDS011;40241;52.684;9.758;2023-08-17T03:21:13;2.40;;;1.33;;
5650;SDS011;40241;52.684;9.758;2023-08-17T03:23:38;3.10;;;1.60;;
5650;SDS011;40241;52.684;9.758;2023-08-17T03:26:03;3.20;;;1.70;;
5650;SDS011;40241;52.684;9.758;2023-08-17T03:28:28;3.27;;;1.43;;
5650;SDS011;40241;52.684;9.758;2023-08-17T03:30:55;2.30;;;1.53;;
5650;SDS011;40241;52.684;9.758;2023-08-17T03:33:20;1.63;;;1.30;;
5650;SDS011;40241;52.684;9.758;2023-08-17T03:35:46;3.73;;;1.40;;
5650;SDS011;40241;52.684;9.758;2023-08-17T03:38:11;2.33;;;1.83;;
5650;SDS011;40241;52.684;9.758;2023-08-17T03:40:36;3.57;;;1.67;;
5650;SDS011;40241;52.684;9.758;2023-08-17T03:43:02;3.40;;;1.70;;
5650;SDS011;40241;52.684;9.758;2023-08-17T03:45:28;2.23;;;1.37;;
5650;SDS011;40241;52.684;9.758;2023-08-17T03:47:54;1.63;;;1.53;;
5650;SDS011;40241;52.684;9.758;2023-08-17T03:50:19;5.73;;;1.40;;
5650;SDS011;40241;52.684;9.758;2023-08-17T03:52:44;3.73;;;1.60;;
5650;SDS011;40241;52.684;9.758;2023-08-17T03:55:10;2.70;;;1.30;;
5650;SDS011;40241;52.684;9.758;2023-08-17T03:57:35;2.40;;;1.40;;
5650;SDS011;40241;52.684;9.758;2023-08-17T04:00:00;4.53;;;1.77;;
5650;SDS011;40241;52.684;9.758;2023-08-17T04:02:26;2.43;;;1.50;;
5650;SDS011;40241;52.684;9.758;2023-08-17T04:04:51;2.70;;;1.30;;
5650;SDS011;40241;52.684;9.758;2023-08-17T04:07:22;4.00;;;2.00;;
5650;SDS011;40241;52.684;9.758;2023-08-17T04:09:48;3.20;;;2.17;;
5650;SDS011;40241;52.684;9.758;2023-08-17T04:12:13;3.43;;;1.73;;
5650;SDS011;40241;52.684;9.758;2023-08-17T04:14:39;4.10;;;1.90;;
5650;SDS011;40241;52.684;9.758;2023-08-17T04:17:04;2.23;;;1.77;;
5650;SDS011;40241;52.684;9.758;2023-08-17T04:19:30;2.70;;;1.50;;
5650;SDS011;40241;52.684;9.758;2023-08-17T04:21:55;2.80;;;1.80;;
5650;SDS011;40241;52.684;9.758;2023-08-17T04:24:20;1.63;;;1.53;;
5650;SDS011;40241;52.684;9.758;2023-08-17T04:26:46;2.40;;;1.43;;
5650;SDS011;40241;52.684;9.758;2023-08-17T04:29:11;3.80;;;1.50;;
5650;SDS011;40241;52.684;9.758;2023-08-17T04:31:37;3.10;;;2.20;;
5650;SDS011;40241;52.684;9.758;2023-08-17T04:34:02;1.60;;;1.50;;
5650;SDS011;40241;52.684;9.758;2023-08-17T04:36:28;5.37;;;1.70;;
5650;SDS011;40241;52.684;9.758;2023-08-17T04:38:53;3.70;;;1.90;;
5650;SDS011;40241;52.684;9.758;2023-08-17T04:41:18;2.23;;;1.67;;
5650;SDS011;40241;52.684;9.758;2023-08-17T04:43:44;2.00;;;1.63;;
5650;SDS011;40241;52.684;9.758;2023-08-17T04:46:11;3.20;;;1.47;;
5650;SDS011;40241;52.684;9.758;2023-08-17T04:48:37;2.63;;;1.73;;
5650;SDS011;40241;52.684;9.758;2023-08-17T04:51:02;1.87;;;1.77;;
5650;SDS011;40241;52.684;9.758;2023-08-17T04:53:28;1.83;;;1.60;;
5650;SDS011;40241;52.684;9.758;2023-08-17T04:55:53;4.87;;;1.70;;
5650;SDS011;40241;52.684;9.758;2023-08-17T04:58:18;2.67;;;1.60;;
5650;SDS011;40241;52.684;9.758;2023-08-17T05:00:43;1.87;;;1.77;;
5650;SDS011;40241;52.684;9.758;2023-08-17T05:03:09;2.03;;;1.80;;
5650;SDS011;40241;52.684;9.758;2023-08-17T05:05:34;2.13;;;2.03;;
5650;SDS011;40241;52.684;9.758;2023-08-17T05:08:00;2.90;;;1.67;;
5650;SDS011;40241;52.684;9.758;2023-08-17T05:10:26;2.77;;;2.00;;
5650;SDS011;40241;52.684;9.758;2023-08-17T05:12:51;1.60;;;1.50;;
5650;SDS011;40241;52.684;9.758;2023-08-17T05:15:17;5.87;;;1.40;;
5650;SDS011;40241;52.684;9.758;2023-08-17T05:17:42;3.00;;;1.80;;
5650;SDS011;40241;52.684;9.758;2023-08-17T05:20:08;1.87;;;1.50;;
5650;SDS011;40241;52.684;9.758;2023-08-17T05:22:33;3.77;;;1.80;;
5650;SDS011;40241;52.684;9.758;2023-08-17T05:24:59;1.70;;;1.60;;
5650;SDS011;40241;52.684;9.758;2023-08-17T05:27:24;1.80;;;1.70;;
5650;SDS011;40241;52.684;9.758;2023-08-17T05:29:49;1.70;;;1.57;;
5650;SDS011;40241;52.684;9.758;2023-08-17T05:32:15;1.87;;;1.77;;
5650;SDS011;40241;52.684;9.758;2023-08-17T05:34:40;1.73;;;1.63;;
5650;SDS011;40241;52.684;9.758;2023-08-17T05:37:06;2.17;;;1.53;;
5650;SDS011;40241;52.684;9.758;2023-08-17T05:39:31;2.10;;;1.80;;
5650;SDS011;40241;52.684;9.758;2023-08-17T05:41:56;3.37;;;1.77;;
5650;SDS011;40241;52.684;9.758;2023-08-17T05:44:21;5.53;;;1.60;;
5650;SDS011;40241;52.684;9.758;2023-08-17T05:46:47;1.83;;;1.73;;
5650;SDS011;40241;52.684;9.758;2023-08-17T05:49:13;2.03;;;1.90;;
5650;SDS011;40241;52.684;9.758;2023-08-17T05:51:39;1.73;;;1.63;;
5650;SDS011;40241;52.684;9.758;2023-08-17T05:54:04;2.20;;;2.00;;
5650;SDS011;40241;52.684;9.758;2023-08-17T05:56:29;2.07;;;1.87;;
5650;SDS011;40241;52.684;9.758;2023-08-17T05:58:55;2.20;;;2.00;;
5650;SDS011;40241;52.684;9.758;2023-08-17T06:01:20;2.13;;;1.73;;
5650;SDS011;40241;52.684;9.758;2023-08-17T06:03:45;3.23;;;1.90;;
5650;SDS011;40241;52.684;9.758;2023-08-17T06:06:11;2.23;;;1.80;;
5650;SDS011;40241;52.684;9.758;2023-08-17T06:08:36;2.30;;;2.10;;
5650;SDS011;40241;52.684;9.758;2023-08-17T06:11:01;1.80;;;1.70;;
5650;SDS011;40241;52.684;9.758;2023-08-17T06:13:27;4.43;;;2.03;;
5650;SDS011;40241;52.684;9.758;2023-08-17T06:15:52;1.90;;;1.80;;
5650;SDS011;40241;52.684;9.758;2023-08-17T06:18:17;3.90;;;2.37;;
5650;SDS011;40241;52.684;9.758;2023-08-17T06:20:43;3.50;;;1.80;;
5650;SDS011;40241;52.684;9.758;2023-08-17T06:23:08;2.13;;;1.87;;
5650;SDS011;40241;52.684;9.758;2023-08-17T06:25:33;4.73;;;1.70;;
5650;SDS011;40241;52.684;9.758;2023-08-17T06:27:59;2.20;;;2.00;;
5650;SDS011;40241;52.684;9.758;2023-08-17T06:30:25;2.30;;;2.10;;
5650;SDS011;40241;52.684;9.758;2023-08-17T06:32:51;2.43;;;2.10;;
5650;SDS011;40241;52.684;9.758;2023-08-17T06:35:16;2.40;;;2.20;;
5650;SDS011;40241;52.684;9.758;2023-08-17T06:37:42;2.10;;;1.97;;
5650;SDS011;40241;52.684;9.758;2023-08-17T06:40:07;2.07;;;1.87;;
5650;SDS011;40241;52.684;9.758;2023-08-17T06:42:36;4.43;;;2.20;;
5650;SDS011;40241;52.684;9.758;2023-08-17T06:45:01;2.43;;;2.20;;
5650;SDS011;40241;52.684;9.758;2023-08-17T06:47:27;3.30;;;2.30;;
5650;SDS011;40241;52.684;9.758;2023-08-17T06:49:52;1.90;;;1.80;;
5650;SDS011;40241;52.684;9.758;2023-08-17T06:52:18;1.60;;;1.50;;
5650;SDS011;40241;52.684;9.758;2023-08-17T06:54:43;2.33;;;2.13;;
5650;SDS011;40241;52.684;9.758;2023-08-17T06:57:08;2.13;;;1.87;;
5650;SDS011;40241;52.684;9.758;2023-08-17T06:59:34;1.73;;;1.63;;
5650;SDS011;40241;52.684;9.758;2023-08-17T07:02:00;3.83;;;1.90;;
5650;SDS011;40241;52.684;9.758;2023-08-17T07:04:25;2.00;;;1.90;;
5650;SDS011;40241;52.684;9.758;2023-08-17T07:06:50;3.23;;;2.10;;
5650;SDS011;40241;52.684;9.758;2023-08-17T07:09:16;3.53;;;1.80;;
5650;SDS011;40241;52.684;9.758;2023-08-17T07:11:41;2.27;;;1.80;;
5650;SDS011;40241;52.684;9.758;2023-08-17T07:14:06;2.50;;;2.10;;
5650;SDS011;40241;52.684;9.758;2023-08-17T07:16:32;1.73;;;1.63;;
5650;SDS011;40241;52.684;9.758;2023-08-17T07:18:59;2.17;;;1.90;;
5650;SDS011;40241;52.684;9.758;2023-08-17T07:21:24;2.63;;;2.00;;
5650;SDS011;40241;52.684;9.758;2023-08-17T07:23:50;1.60;;;1.50;;
5650;SDS011;40241;52.684;9.758;2023-08-17T07:26:16;2.60;;;1.67;;
5650;SDS011;40241;52.684;9.758;2023-08-17T07:28:43;1.70;;;1.60;;
5650;SDS011;40241;52.684;9.758;2023-08-17T07:31:09;2.73;;;1.80;;
5650;SDS011;40241;52.684;9.758;2023-08-17T07:33:34;1.60;;;1.50;;
5650;SDS011;40241;52.684;9.758;2023-08-17T07:35:59;1.70;;;1.60;;
5650;SDS011;40241;52.684;9.758;2023-08-17T07:38:25;1.40;;;1.30;;
5650;SDS011;40241;52.684;9.758;2023-08-17T07:40:50;1.87;;;1.67;;
5650;SDS011;40241;52.684;9.758;2023-08-17T07:43:16;1.50;;;1.40;;
5650;SDS011;40241;52.684;9.758;2023-08-17T07:45:41;2.00;;;1.50;;
5650;SDS011;40241;52.684;9.758;2023-08-17T07:48:06;1.67;;;1.57;;
5650;SDS011;40241;52.684;9.758;2023-08-17T07:50:32;2.83;;;1.27;;
5650;SDS011;40241;52.684;9.758;2023-08-17T07:52:57;1.60;;;1.40;;
5650;SDS011;40241;52.684;9.758;2023-08-17T07:55:22;1.40;;;1.30;;
5650;SDS011;40241;52.684;9.758;2023-08-17T07:57:48;1.70;;;1.40;;
5650;SDS011;40241;52.684;9.758;2023-08-17T08:00:13;2.30;;;1.67;;
5650;SDS011;40241;52.684;9.758;2023-08-17T08:02:39;1.47;;;1.20;;
5650;SDS011;40241;52.684;9.758;2023-08-17T08:05:05;8.47;;;1.30;;
5650;SDS011;40241;52.684;9.758;2023-08-17T08:07:31;1.50;;;1.40;;
5650;SDS011;40241;52.684;9.758;2023-08-17T08:09:57;1.20;;;1.10;;
5650;SDS011;40241;52.684;9.758;2023-08-17T08:12:22;2.10;;;1.70;;
5650;SDS011;40241;52.684;9.758;2023-08-17T08:14:47;1.33;;;1.23;;
5650;SDS011;40241;52.684;9.758;2023-08-17T08:17:13;1.60;;;1.50;;
5650;SDS011;40241;52.684;9.758;2023-08-17T08:19:38;1.30;;;1.20;;
5650;SDS011;40241;52.684;9.758;2023-08-17T08:22:04;2.67;;;1.60;;
5650;SDS011;40241;52.684;9.758;2023-08-17T08:24:29;2.50;;;1.50;;
5650;SDS011;40241;52.684;9.758;2023-08-17T08:26:58;1.33;;;1.23;;
5650;SDS011;40241;52.684;9.758;2023-08-17T08:29:24;1.27;;;1.20;;
5650;SDS011;40241;52.684;9.758;2023-08-17T08:31:49;1.67;;;1.00;;
5650;SDS011;40241;52.684;9.758;2023-08-17T08:34:15;1.83;;;1.40;;
5650;SDS011;40241;52.684;9.758;2023-08-17T08:36:40;3.30;;;1.90;;
5650;SDS011;40241;52.684;9.758;2023-08-17T08:39:05;2.00;;;1.47;;
5650;SDS011;40241;52.684;9.758;2023-08-17T08:41:31;1.33;;;1.23;;
5650;SDS011;40241;52.684;9.758;2023-08-17T08:43:57;1.47;;;1.37;;
5650;SDS011;40241;52.684;9.758;2023-08-17T08:46:22;1.60;;;1.50;;
5650;SDS011;40241;52.684;9.758;2023-08-17T08:48:51;2.63;;;1.93;;
5650;SDS011;40241;52.684;9.758;2023-08-17T08:51:21;1.50;;;1.40;;
5650;SDS011;40241;52.684;9.758;2023-08-17T08:53:51;1.27;;;1.17;;
5650;SDS011;40241;52.684;9.758;2023-08-17T08:56:25;4.63;;;1.60;;
5650;SDS011;40241;52.684;9.758;2023-08-17T08:58:51;1.13;;;1.03;;
5650;SDS011;40241;52.684;9.758;2023-08-17T09:01:17;1.83;;;1.53;;
5650;SDS011;40241;52.684;9.758;2023-08-17T09:03:44;1.70;;;1.60;;
5650;SDS011;40241;52.684;9.758;2023-08-17T09:06:12;1.63;;;1.23;;
5650;SDS011;40241;52.684;9.758;2023-08-17T09:08:39;1.47;;;1.37;;
5650;SDS011;40241;52.684;9.758;2023-08-17T09:11:05;1.50;;;1.37;;
5650;SDS011;40241;52.684;9.758;2023-08-17T09:13:30;1.20;;;1.10;;
5650;SDS011;40241;52.684;9.758;2023-08-17T09:15:57;1.70;;;1.47;;
5650;SDS011;40241;52.684;9.758;2023-08-17T09:18:24;2.47;;;1.43;;
5650;SDS011;40241;52.684;9.758;2023-08-17T09:20:51;1.30;;;1.10;;
5650;SDS011;40241;52.684;9.758;2023-08-17T09:23:20;3.10;;;1.40;;
5650;SDS011;40241;52.684;9.758;2023-08-17T09:25:47;1.67;;;1.33;;
5650;SDS011;40241;52.684;9.758;2023-08-17T09:28:15;1.57;;;1.20;;
5650;SDS011;40241;52.684;9.758;2023-08-17T09:30:57;1.13;;;1.13;;
5650;SDS011;40241;52.684;9.758;2023-08-17T09:33:29;1.97;;;1.20;;
5650;SDS011;40241;52.684;9.758;2023-08-17T09:35:56;3.00;;;1.13;;
5650;SDS011;40241;52.684;9.758;2023-08-17T09:38:23;1.30;;;1.20;;
5650;SDS011;40241;52.684;9.758;2023-08-17T09:40:49;1.17;;;1.07;;
5650;SDS011;40241;52.684;9.758;2023-08-17T09:43:15;1.40;;;1.30;;
5650;SDS011;40241;52.684;9.758;2023-08-17T09:45:41;1.30;;;1.20;;
5650;SDS011;40241;52.684;9.758;2023-08-17T09:48:10;3.90;;;1.53;;
5650;SDS011;40241;52.684;9.758;2023-08-17T09:50:36;1.77;;;1.67;;
5650;SDS011;40241;52.684;9.758;2023-08-17T09:53:04;1.97;;;1.60;;
5650;SDS011;40241;52.684;9.758;2023-08-17T09:55:30;2.50;;;1.30;;
5650;SDS011;40241;52.684;9.758;2023-08-17T09:57:56;1.30;;;1.20;;
5650;SDS011;40241;52.684;9.758;2023-08-17T10:00:22;1.50;;;1.40;;
5650;SDS011;40241;52.684;9.758;2023-08-17T10:02:50;1.20;;;1.10;;
5650;SDS011;40241;52.684;9.758;2023-08-17T10:05:19;3.00;;;1.23;;
5650;SDS011;40241;52.684;9.758;2023-08-17T10:07:49;1.90;;;1.20;;
5650;SDS011;40241;52.684;9.758;2023-08-17T10:10:19;1.33;;;1.20;;
5650;SDS011;40241;52.684;9.758;2023-08-17T10:12:53;3.27;;;1.40;;
5650;SDS011;40241;52.684;9.758;2023-08-17T10:15:31;1.47;;;1.03;;
5650;SDS011;40241;52.684;9.758;2023-08-17T10:18:00;1.93;;;1.03;;
5650;SDS011;40241;52.684;9.758;2023-08-17T10:20:34;1.07;;;0.97;;
5650;SDS011;40241;52.684;9.758;2023-08-17T10:23:08;4.73;;;1.23;;
5650;SDS011;40241;52.684;9.758;2023-08-17T10:25:39;1.50;;;1.10;;
5650;SDS011;40241;52.684;9.758;2023-08-17T10:28:06;2.13;;;1.43;;
5650;SDS011;40241;52.684;9.758;2023-08-17T10:30:34;1.10;;;1.10;;
5650;SDS011;40241;52.684;9.758;2023-08-17T10:32:59;1.93;;;1.10;;
5650;SDS011;40241;52.684;9.758;2023-08-17T10:35:25;1.10;;;1.00;;
5650;SDS011;40241;52.684;9.758;2023-08-17T10:37:51;1.03;;;0.90;;
5650;SDS011;40241;52.684;9.758;2023-08-17T10:40:24;2.40;;;1.33;;
5650;SDS011;40241;52.684;9.758;2023-08-17T10:42:53;3.23;;;1.10;;
5650;SDS011;40241;52.684;9.758;2023-08-17T10:45:29;1.53;;;1.43;;
5650;SDS011;40241;52.684;9.758;2023-08-17T10:47:59;1.23;;;1.13;;
5650;SDS011;40241;52.684;9.758;2023-08-17T10:50:58;1.27;;;1.10;;
5650;SDS011;40241;52.684;9.758;2023-08-17T10:53:25;1.07;;;0.97;;
5650;SDS011;40241;52.684;9.758;2023-08-17T10:55:50;1.40;;;1.30;;
5650;SDS011;40241;52.684;9.758;2023-08-17T10:58:22;1.50;;;1.40;;
5650;SDS011;40241;52.684;9.758;2023-08-17T11:00:47;1.40;;;1.30;;
5650;SDS011;40241;52.684;9.758;2023-08-17T11:03:19;1.20;;;1.10;;
5650;SDS011;40241;52.684;9.758;2023-08-17T11:05:47;1.10;;;0.90;;
5650;SDS011;40241;52.684;9.758;2023-08-17T11:08:34;2.17;;;1.80;;
5650;SDS011;40241;52.684;9.758;2023-08-17T11:13:36;1.57;;;1.47;;
5650;SDS011;40241;52.684;9.758;2023-08-17T11:16:09;1.50;;;1.20;;
5650;SDS011;40241;52.684;9.758;2023-08-17T11:18:35;1.23;;;1.10;;
5650;SDS011;40241;52.684;9.758;2023-08-17T11:21:01;1.00;;;1.00;;
5650;SDS011;40241;52.684;9.758;2023-08-17T11:23:31;1.13;;;1.07;;
5650;SDS011;40241;52.684;9.758;2023-08-17T11:25:58;0.90;;;0.90;;
5650;SDS011;40241;52.684;9.758;2023-08-17T11:28:24;2.63;;;1.57;;
5650;SDS011;40241;52.684;9.758;2023-08-17T11:30:57;2.33;;;1.67;;
5650;SDS011;40241;52.684;9.758;2023-08-17T11:33:25;1.27;;;1.07;;
5650;SDS011;40241;52.684;9.758;2023-08-17T11:35:50;1.93;;;1.30;;
5650;SDS011;40241;52.684;9.758;2023-08-17T11:38:16;2.60;;;1.20;;
5650;SDS011;40241;52.684;9.758;2023-08-17T11:40:41;1.10;;;1.10;;
5650;SDS011;40241;52.684;9.758;2023-08-17T11:43:07;1.27;;;1.17;;
5650;SDS011;40241;52.684;9.758;2023-08-17T11:45:32;1.90;;;1.13;;
5650;SDS011;40241;52.684;9.758;2023-08-17T11:47:59;1.90;;;1.27;;
5650;SDS011;40241;52.684;9.758;2023-08-17T11:50:24;1.30;;;1.10;;
5650;SDS011;40241;52.684;9.758;2023-08-17T11:52:51;1.40;;;1.30;;
5650;SDS011;40241;52.684;9.758;2023-08-17T11:55:17;1.50;;;1.17;;
5650;SDS011;40241;52.684;9.758;2023-08-17T11:57:43;1.37;;;1.30;;
5650;SDS011;40241;52.684;9.758;2023-08-17T12:00:08;1.90;;;0.97;;
5650;SDS011;40241;52.684;9.758;2023-08-17T12:02:35;1.53;;;1.07;;
5650;SDS011;40241;52.684;9.758;2023-08-17T12:05:02;1.10;;;1.00;;
5650;SDS011;40241;52.684;9.758;2023-08-17T12:07:31;3.80;;;1.40;;
5650;SDS011;40241;52.684;9.758;2023-08-17T12:09:57;1.30;;;1.20;;
5650;SDS011;40241;52.684;9.758;2023-08-17T12:12:22;2.53;;;1.17;;
5650;SDS011;40241;52.684;9.758;2023-08-17T12:14:48;1.13;;;1.00;;
5650;SDS011;40241;52.684;9.758;2023-08-17T12:17:14;1.00;;;1.00;;
5650;SDS011;40241;52.684;9.758;2023-08-17T12:19:41;1.57;;;1.17;;
5650;SDS011;40241;52.684;9.758;2023-08-17T12:22:07;1.40;;;1.30;;
5650;SDS011;40241;52.684;9.758;2023-08-17T12:24:32;1.57;;;1.47;;
5650;SDS011;40241;52.684;9.758;2023-08-17T12:26:59;1.23;;;1.13;;
5650;SDS011;40241;52.684;9.758;2023-08-17T12:29:26;1.33;;;1.23;;
5650;SDS011;40241;52.684;9.758;2023-08-17T12:31:52;3.17;;;1.60;;
5650;SDS011;40241;52.684;9.758;2023-08-17T12:34:17;1.30;;;1.10;;
5650;SDS011;40241;52.684;9.758;2023-08-17T12:36:43;1.40;;;1.30;;
5650;SDS011;40241;52.684;9.758;2023-08-17T12:39:09;1.70;;;1.37;;
5650;SDS011;40241;52.684;9.758;2023-08-17T12:41:34;3.50;;;1.40;;
5650;SDS011;40241;52.684;9.758;2023-08-17T12:44:00;4.03;;;1.40;;
5650;SDS011;40241;52.684;9.758;2023-08-17T12:46:26;1.03;;;1.00;;
5650;SDS011;40241;52.684;9.758;2023-08-17T12:48:51;1.07;;;1.00;;
5650;SDS011;40241;52.684;9.758;2023-08-17T12:51:17;1.00;;;0.90;;
5650;SDS011;40241;52.684;9.758;2023-08-17T12:53:42;1.73;;;1.07;;
5650;SDS011;40241;52.684;9.758;2023-08-17T12:56:07;1.43;;;1.00;;
5650;SDS011;40241;52.684;9.758;2023-08-17T12:58:33;0.83;;;0.83;;
5650;SDS011;40241;52.684;9.758;2023-08-17T13:00:59;1.57;;;1.47;;
5650;SDS011;40241;52.684;9.758;2023-08-17T13:03:24;0.90;;;0.90;;
5650;SDS011;40241;52.684;9.758;2023-08-17T13:05:49;0.87;;;0.87;;
5650;SDS011;40241;52.684;9.758;2023-08-17T13:08:15;1.33;;;1.17;;
5650;SDS011;40241;52.684;9.758;2023-08-17T13:10:40;1.00;;;0.83;;
5650;SDS011;40241;52.684;9.758;2023-08-17T13:13:06;1.27;;;1.17;;
5650;SDS011;40241;52.684;9.758;2023-08-17T13:15:32;0.90;;;0.90;;
5650;SDS011;40241;52.684;9.758;2023-08-17T13:17:58;1.10;;;1.00;;
5650;SDS011;40241;52.684;9.758;2023-08-17T13:20:24;0.87;;;0.87;;
5650;SDS011;40241;52.684;9.758;2023-08-17T13:22:49;1.17;;;1.07;;
5650;SDS011;40241;52.684;9.758;2023-08-17T13:25:15;1.73;;;1.00;;
5650;SDS011;40241;52.684;9.758;2023-08-17T13:27:41;1.73;;;1.10;;
5650;SDS011;40241;52.684;9.758;2023-08-17T13:30:06;2.20;;;1.40;;
5650;SDS011;40241;52.684;9.758;2023-08-17T13:32:32;1.37;;;1.13;;
5650;SDS011;40241;52.684;9.758;2023-08-17T13:34:57;1.03;;;0.93;;
5650;SDS011;40241;52.684;9.758;2023-08-17T13:37:22;1.03;;;1.00;;
5650;SDS011;40241;52.684;9.758;2023-08-17T13:39:48;1.07;;;0.97;;
5650;SDS011;40241;52.684;9.758;2023-08-17T13:42:13;1.30;;;1.20;;
5650;SDS011;40241;52.684;9.758;2023-08-17T13:44:39;1.10;;;0.93;;
5650;SDS011;40241;52.684;9.758;2023-08-17T13:47:04;1.20;;;0.90;;
5650;SDS011;40241;52.684;9.758;2023-08-17T13:49:30;0.73;;;0.73;;
5650;SDS011;40241;52.684;9.758;2023-08-17T13:51:55;0.90;;;0.90;;
5650;SDS011;40241;52.684;9.758;2023-08-17T13:54:21;1.20;;;1.10;;
5650;SDS011;40241;52.684;9.758;2023-08-17T13:56:50;1.10;;;1.00;;
5650;SDS011;40241;52.684;9.758;2023-08-17T13:59:16;0.80;;;0.77;;
5650;SDS011;40241;52.684;9.758;2023-08-17T14:01:41;1.10;;;0.90;;
5650;SDS011;40241;52.684;9.758;2023-08-17T14:04:06;1.17;;;1.17;;
5650;SDS011;40241;52.684;9.758;2023-08-17T14:06:37;1.83;;;1.20;;
5650;SDS011;40241;52.684;9.758;2023-08-17T14:09:03;0.97;;;0.90;;
5650;SDS011;40241;52.684;9.758;2023-08-17T14:11:29;0.80;;;0.77;;
5650;SDS011;40241;52.684;9.758;2023-08-17T14:13:54;1.90;;;1.20;;
5650;SDS011;40241;52.684;9.758;2023-08-17T14:16:20;1.30;;;1.20;;
5650;SDS011;40241;52.684;9.758;2023-08-17T14:18:45;0.97;;;0.97;;
5650;SDS011;40241;52.684;9.758;2023-08-17T14:21:10;1.27;;;1.00;;
5650;SDS011;40241;52.684;9.758;2023-08-17T14:23:37;1.20;;;1.10;;
5650;SDS011;40241;52.684;9.758;2023-08-17T14:26:04;2.40;;;1.20;;
5650;SDS011;40241;52.684;9.758;2023-08-17T14:28:29;1.80;;;1.30;;
5650;SDS011;40241;52.684;9.758;2023-08-17T14:30:55;1.40;;;1.30;;
5650;SDS011;40241;52.684;9.758;2023-08-17T14:33:20;1.30;;;1.20;;
5650;SDS011;40241;52.684;9.758;2023-08-17T14:35:45;1.10;;;1.10;;
5650;SDS011;40241;52.684;9.758;2023-08-17T14:38:11;1.93;;;0.73;;
5650;SDS011;40241;52.684;9.758;2023-08-17T14:40:38;2.40;;;1.30;;
5650;SDS011;40241;52.684;9.758;2023-08-17T14:43:06;1.40;;;1.00;;
5650;SDS011;40241;52.684;9.758;2023-08-17T14:45:32;1.03;;;1.03;;
5650;SDS011;40241;52.684;9.758;2023-08-17T14:47:57;1.17;;;1.00;;
5650;SDS011;40241;52.684;9.758;2023-08-17T14:50:23;1.00;;;0.90;;
5650;SDS011;40241;52.684;9.758;2023-08-17T14:52:49;0.97;;;0.87;;
5650;SDS011;40241;52.684;9.758;2023-08-17T14:55:14;1.10;;;1.00;;
5650;SDS011;40241;52.684;9.758;2023-08-17T14:57:40;2.00;;;1.00;;
5650;SDS011;40241;52.684;9.758;2023-08-17T15:00:05;1.00;;;0.90;;